Time;durP1;ratioP1;P1;durP2;ratioP2;P2;SDS_P1;SDS_P2;PMS_P1;PMS_P2;Temp;Humidity;BMP_temperature;BMP_pressure;BME280_temperature;BME280_humidity;BME280_pressure;Samples;Min_cycle;Max_cycle;Signal;HPM_P1;HPM_P2
2022/12/13 00:02:02;;;;;;;54.88;20.35;;;-3269.80;96.70;;;;;;5017496;28;20034;-73
2022/12/13 00:04:27;;;;;;;49.80;21.67;;;-3269.70;96.70;;;;;;5024405;28;20104;-75
2022/12/13 00:06:53;;;;;;;53.92;21.05;;;-3269.80;96.80;;;;;;5017496;28;20458;-74
2022/12/13 00:09:19;;;;;;;58.13;21.77;;;-3269.80;96.90;;;;;;5027668;28;20123;-74
2022/12/13 00:11:44;;;;;;;52.63;19.55;;;-3269.80;96.80;;;;;;5020443;28;20026;-74
2022/12/13 00:14:12;;;;;;;48.85;21.35;;;-3269.70;96.80;;;;;;5020562;28;20108;-73
2022/12/13 00:16:38;;;;;;;48.88;19.90;;;-3269.70;96.70;;;;;;5027023;28;20160;-73
2022/12/13 00:19:04;;;;;;;49.78;19.98;;;-3269.80;96.90;;;;;;5024639;28;20082;-73
2022/12/13 00:21:31;;;;;;;51.40;21.17;;;-3269.70;96.70;;;;;;5021569;28;20508;-74
2022/12/13 00:23:59;;;;;;;52.55;19.33;;;-3269.70;96.80;;;;;;5024858;28;20045;-74
2022/12/13 00:26:29;;;;;;;48.75;19.55;;;-3269.60;96.70;;;;;;5026301;28;20073;-75
2022/12/13 00:28:57;;;;;;;47.28;20.00;;;-3269.60;96.70;;;;;;5020691;28;20564;-75
2022/12/13 00:31:24;;;;;;;48.83;20.20;;;-3269.50;96.50;;;;;;5024073;28;20092;-74
2022/12/13 00:33:50;;;;;;;59.17;20.63;;;-3269.50;96.50;;;;;;5022072;28;20263;-74
2022/12/13 00:36:16;;;;;;;49.88;20.90;;;-3269.50;96.50;;;;;;5028115;28;20458;-75
2022/12/13 00:38:41;;;;;;;54.30;20.67;;;-3269.50;96.50;;;;;;5021967;28;20114;-73
2022/12/13 00:41:16;;;;;;;56.83;22.77;;;-3269.50;96.50;;;;;;5025449;28;20034;-75
2022/12/13 00:43:42;;;;;;;55.38;22.10;;;-3269.50;96.50;;;;;;5015430;28;20025;-74
2022/12/13 00:46:19;;;;;;;58.80;23.98;;;-3269.40;96.30;;;;;;5026784;28;20045;-74
2022/12/13 00:48:49;;;;;;;48.90;20.70;;;-3269.40;96.30;;;;;;5026608;28;20048;-74
2022/12/13 00:51:15;;;;;;;59.38;23.00;;;-3269.40;96.40;;;;;;5025487;28;20025;-73
2022/12/13 00:53:40;;;;;;;50.42;23.20;;;-3269.50;96.40;;;;;;5018727;28;20064;-73
2022/12/13 00:56:11;;;;;;;61.33;23.80;;;-3269.50;96.40;;;;;;5026515;28;20045;-74
2022/12/13 00:58:37;;;;;;;45.55;22.38;;;-3269.60;96.30;;;;;;5018314;28;20357;-73
2022/12/13 01:01:08;;;;;;;60.70;22.60;;;-3269.60;96.30;;;;;;5025801;28;20380;-74
2022/12/13 01:03:34;;;;;;;52.83;21.10;;;-3269.60;96.30;;;;;;5025314;28;20105;-74
2022/12/13 01:06:00;;;;;;;47.90;21.77;;;-3269.60;96.20;;;;;;5025640;28;20964;-74
2022/12/13 01:08:26;;;;;;;54.65;22.40;;;-3269.70;96.30;;;;;;5011291;28;20037;-74
2022/12/13 01:10:52;;;;;;;46.67;20.92;;;-3269.70;96.30;;;;;;5025025;28;20343;-73
2022/12/13 01:13:18;;;;;;;57.28;20.42;;;-3269.80;96.30;;;;;;5013619;28;20045;-75
2022/12/13 01:15:45;;;;;;;52.05;20.52;;;-3269.90;96.40;;;;;;5010844;28;20381;-74
2022/12/13 01:18:12;;;;;;;49.42;19.85;;;-3270.00;96.40;;;;;;5026635;28;20127;-73
2022/12/13 01:20:38;;;;;;;49.08;19.58;;;-3270.00;96.40;;;;;;5023617;28;20310;-74
2022/12/13 01:23:05;;;;;;;45.55;20.25;;;-3270.10;96.60;;;;;;5022294;28;20114;-73
2022/12/13 01:25:32;;;;;;;56.30;20.50;;;-3270.00;96.30;;;;;;5024393;28;20034;-73
2022/12/13 01:27:58;;;;;;;52.00;19.67;;;-3270.10;96.50;;;;;;5021052;28;20135;-74
2022/12/13 01:30:23;;;;;;;52.45;20.67;;;-3270.10;96.40;;;;;;5021866;28;20190;-73
2022/12/13 01:32:49;;;;;;;52.30;20.70;;;-3270.00;96.30;;;;;;5017955;28;20112;-74
2022/12/13 01:35:14;;;;;;;43.17;19.98;;;-3270.10;96.40;;;;;;5026180;28;20427;-73
2022/12/13 01:37:40;;;;;;;51.35;18.33;;;-3270.10;96.30;;;;;;5025663;28;20095;-74
2022/12/13 01:40:06;;;;;;;42.40;18.52;;;-3270.20;96.40;;;;;;5016962;28;20033;-74
2022/12/13 01:42:31;;;;;;;45.63;20.30;;;-3270.20;96.40;;;;;;5023128;28;20461;-73
2022/12/13 01:44:59;;;;;;;48.72;21.42;;;-3270.30;96.30;;;;;;5024122;28;20101;-74
2022/12/13 01:47:42;;;;;;;46.65;19.20;;;-3270.30;96.30;;;;;;5034873;28;20029;-74
2022/12/13 01:50:12;;;;;;;47.08;18.70;;;-3270.30;96.20;;;;;;5018190;28;20128;-74
2022/12/13 01:52:39;;;;;;;50.53;20.10;;;-3270.30;96.20;;;;;;5024745;28;20186;-73
2022/12/13 01:55:06;;;;;;;50.83;20.02;;;-3270.20;96.10;;;;;;5026151;28;20044;-73
2022/12/13 01:57:34;;;;;;;47.15;19.25;;;-3270.20;96.00;;;;;;5026280;28;20028;-72
2022/12/13 02:00:00;;;;;;;51.70;19.77;;;-3270.20;96.00;;;;;;5026378;28;20123;-73
2022/12/13 02:02:26;;;;;;;51.72;18.48;;;-3270.20;95.90;;;;;;5023480;28;20065;-74
2022/12/13 02:05:01;;;;;;;50.72;20.23;;;-3270.20;96.00;;;;;;5015945;28;20356;-73
2022/12/13 02:07:30;;;;;;;43.95;17.98;;;-3270.20;96.00;;;;;;5016859;28;20059;-73
2022/12/13 02:09:58;;;;;;;45.80;18.23;;;-3270.30;96.00;;;;;;5025687;28;20066;-74
2022/12/13 02:12:28;;;;;;;44.38;19.10;;;-3270.30;96.10;;;;;;5017539;28;20029;-72
2022/12/13 02:14:54;;;;;;;48.53;20.27;;;-3270.30;95.90;;;;;;5021806;28;20549;-73
2022/12/13 02:17:44;;;;;;;50.92;20.27;;;-3270.30;95.90;;;;;;5023493;28;20048;-72
2022/12/13 02:20:22;;;;;;;42.47;17.67;;;-3270.20;95.90;;;;;;5034079;28;20033;-72
2022/12/13 02:23:03;;;;;;;46.33;17.90;;;-3270.20;95.90;;;;;;5020044;28;20042;-72
2022/12/13 02:26:03;;;;;;;44.33;19.55;;;-3270.10;95.80;;;;;;5027079;28;20458;-74
2022/12/13 02:28:51;;;;;;;32.65;13.63;;;-3270.10;95.90;;;;;;5025518;28;20443;-74
2022/12/13 02:31:34;;;;;;;42.80;17.60;;;-3270.20;95.90;;;;;;5015528;28;20124;-74
2022/12/13 02:34:16;;;;;;;46.25;18.40;;;-3270.30;96.10;;;;;;5018386;28;20041;-74
2022/12/13 02:37:00;;;;;;;48.72;19.25;;;-3270.40;96.20;;;;;;5027289;28;20450;-74
2022/12/13 02:39:31;;;;;;;49.35;18.05;;;-3270.50;96.20;;;;;;5016910;28;20128;-73
2022/12/13 02:42:06;;;;;;;51.58;19.52;;;-3270.80;96.50;;;;;;5024744;28;20068;-74
2022/12/13 02:44:59;;;;;;;48.15;19.77;;;-3270.90;96.30;;;;;;5025839;28;20083;-73
2022/12/13 02:47:28;;;;;;;49.97;18.92;;;-3270.90;96.40;;;;;;5026480;28;20044;-74
2022/12/13 02:49:57;;;;;;;48.15;19.52;;;-3271.00;96.40;;;;;;5023357;28;20036;-74
2022/12/13 02:52:26;;;;;;;47.73;19.17;;;-3271.00;96.30;;;;;;5024106;28;20029;-74
2022/12/13 02:54:55;;;;;;;54.92;20.50;;;-3271.00;96.30;;;;;;5024775;28;20075;-74
2022/12/13 02:57:39;;;;;;;49.33;19.70;;;-3271.00;96.30;;;;;;5022800;28;20040;-73
2022/12/13 03:00:12;;;;;;;48.17;20.55;;;-3271.00;96.30;;;;;;5017399;28;20181;-73
2022/12/13 03:02:52;;;;;;;52.72;20.75;;;-3271.10;96.30;;;;;;5027201;28;20034;-73
2022/12/13 03:08:11;;;;;;;50.40;20.17;;;-3271.20;96.50;;;;;;5021414;28;20079;-74
2022/12/13 03:11:02;;;;;;;49.63;18.35;;;-3271.30;96.40;;;;;;5023121;28;20033;-74
2022/12/13 03:13:55;;;;;;;57.78;20.27;;;-3271.40;96.40;;;;;;5021123;28;20084;-75
2022/12/13 03:16:24;;;;;;;53.78;20.15;;;-3271.50;96.40;;;;;;5026561;28;20144;-74
2022/12/13 03:18:52;;;;;;;45.63;19.10;;;-3271.60;96.50;;;;;;5028665;28;20057;-73
2022/12/13 03:21:18;;;;;;;54.33;21.17;;;-3271.60;96.50;;;;;;5025646;28;20091;-74
2022/12/13 03:23:45;;;;;;;61.00;20.48;;;-3271.80;96.60;;;;;;5026016;28;20508;-73
2022/12/13 03:26:15;;;;;;;50.97;19.95;;;-3271.80;96.60;;;;;;5026293;28;20022;-73
2022/12/13 03:28:40;;;;;;;50.80;20.55;;;-3271.80;96.50;;;;;;5023533;28;20037;-73
2022/12/13 03:31:06;;;;;;;57.75;21.20;;;-3271.90;96.50;;;;;;5018634;28;20088;-73
2022/12/13 03:33:32;;;;;;;46.58;20.20;;;-3271.90;96.50;;;;;;5021775;28;20024;-73
2022/12/13 03:35:59;;;;;;;53.05;21.77;;;-3272.00;96.60;;;;;;5028213;28;20029;-74
2022/12/13 03:38:25;;;;;;;52.50;20.20;;;-3272.00;96.60;;;;;;5005758;28;20037;-74
2022/12/13 03:40:57;;;;;;;51.88;21.20;;;-3272.00;96.50;;;;;;5015325;28;20508;-74
2022/12/13 03:43:23;;;;;;;60.53;21.65;;;-3272.10;96.70;;;;;;5031576;28;20029;-74
2022/12/13 03:45:50;;;;;;;56.17;21.98;;;-3272.10;96.50;;;;;;5025855;28;20078;-73
2022/12/13 03:48:16;;;;;;;55.47;21.75;;;-3272.10;96.40;;;;;;5013311;28;20091;-73
2022/12/13 03:50:42;;;;;;;53.20;21.88;;;-3272.10;96.40;;;;;;5017786;28;20527;-74
2022/12/13 03:53:07;;;;;;;55.30;21.83;;;-3272.10;96.40;;;;;;5025125;28;20074;-73
2022/12/13 03:55:33;;;;;;;47.90;19.52;;;-3272.10;96.40;;;;;;5023542;28;20346;-73
2022/12/13 03:57:58;;;;;;;52.40;20.60;;;-3272.00;96.30;;;;;;5025886;28;20116;-74
2022/12/13 04:00:24;;;;;;;51.58;19.92;;;-3272.00;96.40;;;;;;5022922;28;20103;-74
2022/12/13 04:02:49;;;;;;;52.08;19.13;;;-3272.00;96.40;;;;;;5027092;28;20411;-73
2022/12/13 04:05:15;;;;;;;54.30;20.88;;;-3272.00;96.30;;;;;;5026554;28;20026;-73
2022/12/13 04:07:40;;;;;;;54.45;22.92;;;-3272.00;96.20;;;;;;5025293;28;20034;-74
2022/12/13 04:10:06;;;;;;;54.47;22.55;;;-3272.00;96.20;;;;;;5028088;28;20450;-76
2022/12/13 04:15:15;;;;;;;52.08;20.27;;;-3271.90;96.10;;;;;;5033718;28;20207;-73
2022/12/13 04:17:41;;;;;;;49.33;20.65;;;-3271.80;96.10;;;;;;5032736;28;20053;-74
2022/12/13 04:20:07;;;;;;;44.08;18.50;;;-3271.80;96.10;;;;;;5036425;28;20025;-74
2022/12/13 04:22:32;;;;;;;50.92;19.75;;;-3271.90;96.20;;;;;;5023715;28;20053;-74
2022/12/13 04:24:58;;;;;;;49.85;21.20;;;-3271.90;96.20;;;;;;5032956;28;20044;-73
2022/12/13 04:27:23;;;;;;;48.65;20.40;;;-3271.90;96.20;;;;;;5029471;28;20041;-73
2022/12/13 04:29:49;;;;;;;61.33;21.02;;;-3271.90;96.20;;;;;;5017327;28;20033;-73
2022/12/13 04:32:14;;;;;;;44.28;18.00;;;-3271.90;96.10;;;;;;5028203;28;20531;-74
2022/12/13 04:34:40;;;;;;;54.83;20.20;;;-3271.90;96.20;;;;;;5022023;28;20078;-73
2022/12/13 04:37:05;;;;;;;49.20;19.35;;;-3272.00;96.20;;;;;;5030611;28;20039;-74
2022/12/13 04:39:31;;;;;;;50.22;19.50;;;-3272.00;96.20;;;;;;5025889;28;20033;-73
2022/12/13 04:41:56;;;;;;;50.47;20.05;;;-3272.00;96.20;;;;;;5024035;28;20064;-75
2022/12/13 04:44:22;;;;;;;48.30;19.70;;;-3272.10;96.00;;;;;;5032817;28;20415;-73
2022/12/13 04:46:47;;;;;;;52.85;19.90;;;-3272.00;96.00;;;;;;5032903;28;20050;-73
2022/12/13 04:49:13;;;;;;;49.10;20.05;;;-3272.00;95.90;;;;;;5026976;28;20128;-74
2022/12/13 04:51:38;;;;;;;45.97;18.70;;;-3272.10;95.90;;;;;;5026535;28;20033;-73
2022/12/13 04:54:04;;;;;;;46.70;19.55;;;-3272.10;95.90;;;;;;5028376;28;20057;-73
2022/12/13 04:56:29;;;;;;;46.22;20.00;;;-3272.10;96.00;;;;;;5020176;28;20347;-74
2022/12/13 04:58:55;;;;;;;54.00;20.27;;;-3272.10;95.90;;;;;;5033459;28;20033;-74
2022/12/13 05:01:20;;;;;;;51.17;19.20;;;-3272.20;96.00;;;;;;5024414;28;20025;-76
2022/12/13 05:03:46;;;;;;;46.25;20.25;;;-3272.10;95.80;;;;;;5029030;28;20095;-74
2022/12/13 05:06:12;;;;;;;52.83;21.35;;;-3272.10;95.90;;;;;;5027134;28;20338;-74
2022/12/13 05:08:38;;;;;;;50.45;19.75;;;-3272.10;95.80;;;;;;5022102;28;20026;-74
2022/12/13 05:11:05;;;;;;;48.17;21.25;;;-3272.00;95.80;;;;;;5022585;28;20044;-73
2022/12/13 05:13:30;;;;;;;53.30;20.20;;;-3272.00;95.70;;;;;;5024405;28;20033;-75
2022/12/13 05:15:58;;;;;;;50.58;20.98;;;-3272.00;95.80;;;;;;5027771;28;20083;-74
2022/12/13 05:18:24;;;;;;;53.47;21.33;;;-3271.90;95.80;;;;;;5026227;28;20042;-74
2022/12/13 05:20:50;;;;;;;50.38;21.30;;;-3272.00;95.80;;;;;;5023895;28;20434;-73
2022/12/13 05:23:17;;;;;;;52.00;21.08;;;-3271.90;95.80;;;;;;5025783;28;20072;-75
2022/12/13 05:25:42;;;;;;;45.25;20.25;;;-3271.90;95.70;;;;;;5027538;28;20036;-73
2022/12/13 05:28:08;;;;;;;48.50;21.52;;;-3272.00;95.80;;;;;;5025258;28;20041;-71
2022/12/13 05:30:33;;;;;;;55.13;21.20;;;-3272.00;95.80;;;;;;5024305;28;20025;-71
2022/12/13 05:32:59;;;;;;;59.72;23.27;;;-3271.90;95.80;;;;;;5020442;28;20041;-73
2022/12/13 05:35:24;;;;;;;51.83;20.38;;;-3271.90;95.80;;;;;;5024632;28;20056;-72
2022/12/13 05:37:51;;;;;;;51.50;20.17;;;-3271.90;95.80;;;;;;5026003;28;20037;-73
2022/12/13 05:40:16;;;;;;;47.08;19.80;;;-3272.00;95.80;;;;;;5025164;28;20102;-72
2022/12/13 05:42:42;;;;;;;52.20;20.27;;;-3271.90;95.60;;;;;;5025013;28;20529;-73
2022/12/13 05:45:08;;;;;;;50.45;20.35;;;-3271.80;95.50;;;;;;5024800;28;20462;-74
2022/12/13 05:47:33;;;;;;;50.03;20.38;;;-3271.80;95.60;;;;;;5023078;28;20021;-73
2022/12/13 05:49:59;;;;;;;48.38;18.95;;;-3271.70;95.60;;;;;;5024904;28;20021;-73
2022/12/13 05:52:24;;;;;;;47.10;19.38;;;-3271.70;95.60;;;;;;5027210;28;20021;-73
2022/12/13 05:54:55;;;;;;;46.22;19.80;;;-3271.80;95.70;;;;;;5025387;28;20076;-73
2022/12/13 05:57:20;;;;;;;45.03;18.33;;;-3271.80;95.60;;;;;;5030744;28;20127;-73
2022/12/13 05:59:46;;;;;;;46.47;18.85;;;-3271.80;95.60;;;;;;5015751;28;20098;-73
2022/12/13 06:02:11;;;;;;;48.35;19.13;;;-3271.80;95.50;;;;;;5023920;28;20037;-72
2022/12/13 06:04:37;;;;;;;50.17;19.20;;;-3271.80;95.60;;;;;;5028489;28;20064;-71
2022/12/13 06:07:02;;;;;;;46.88;19.65;;;-3271.80;95.60;;;;;;5026160;28;20026;-72
2022/12/13 06:09:28;;;;;;;48.00;20.88;;;-3271.80;95.60;;;;;;5025116;28;20404;-72
2022/12/13 06:11:53;;;;;;;48.78;19.75;;;-3271.90;95.70;;;;;;5022418;28;20029;-73
2022/12/13 06:14:19;;;;;;;46.80;18.10;;;-3271.90;95.70;;;;;;5021041;28;20018;-71
2022/12/13 06:16:44;;;;;;;50.28;19.98;;;-3271.90;95.60;;;;;;5030403;28;20028;-72
2022/12/13 06:19:10;;;;;;;50.65;20.63;;;-3272.00;95.60;;;;;;5020915;28;20041;-71
2022/12/13 06:21:35;;;;;;;49.60;20.45;;;-3272.00;95.60;;;;;;5038593;28;20033;-71
2022/12/13 06:24:04;;;;;;;49.83;20.48;;;-3272.00;95.60;;;;;;5020087;28;20368;-71
2022/12/13 06:26:30;;;;;;;45.55;18.75;;;-3272.00;95.60;;;;;;5021931;28;21656;-71
2022/12/13 06:28:55;;;;;;;50.20;20.17;;;-3272.00;95.50;;;;;;5025095;28;20034;-71
2022/12/13 06:31:21;;;;;;;50.65;20.00;;;-3271.90;95.60;;;;;;5022037;28;20116;-72
2022/12/13 06:33:46;;;;;;;53.22;19.60;;;-3271.90;95.50;;;;;;5021147;28;20018;-72
2022/12/13 06:36:11;;;;;;;45.85;18.35;;;-3271.90;95.40;;;;;;5024889;28;20097;-71
2022/12/13 06:38:37;;;;;;;45.40;19.45;;;-3271.80;95.30;;;;;;5016756;28;20512;-71
2022/12/13 06:41:14;;;;;;;43.78;19.13;;;-3271.70;95.30;;;;;;5025791;28;20021;-70
2022/12/13 06:43:44;;;;;;;40.53;18.88;;;-3271.60;95.30;;;;;;5021864;28;20072;-71
2022/12/13 06:46:10;;;;;;;38.92;17.00;;;-3271.60;95.40;;;;;;5021482;28;20170;-72
2022/12/13 06:48:35;;;;;;;43.78;17.83;;;-3271.50;95.40;;;;;;5023519;28;20084;-71
2022/12/13 06:51:03;;;;;;;41.83;18.58;;;-3271.30;95.40;;;;;;5021780;28;20029;-71
2022/12/13 06:53:30;;;;;;;41.63;17.63;;;-3271.30;95.40;;;;;;5012808;28;20036;-72
2022/12/13 06:55:55;;;;;;;41.35;17.23;;;-3271.20;95.40;;;;;;5027240;28;20033;-71
2022/12/13 06:58:21;;;;;;;43.55;19.80;;;-3271.10;95.40;;;;;;5027446;28;20057;-72
2022/12/13 07:00:46;;;;;;;41.13;18.33;;;-3271.10;95.50;;;;;;5025572;28;20166;-71
2022/12/13 07:03:12;;;;;;;55.72;22.80;;;-3271.00;95.50;;;;;;5026502;28;20096;-71
2022/12/13 07:05:38;;;;;;;46.05;21.08;;;-3271.00;95.70;;;;;;5019908;28;20324;-71
2022/12/13 07:08:03;;;;;;;46.42;20.52;;;-3271.00;95.70;;;;;;5026805;28;20470;-71
2022/12/13 07:10:30;;;;;;;45.90;20.80;;;-3271.00;95.60;;;;;;5020208;28;20152;-72
2022/12/13 07:12:55;;;;;;;52.83;20.60;;;-3270.90;95.60;;;;;;5019256;28;20046;-72
2022/12/13 07:15:21;;;;;;;60.72;23.52;;;-3270.90;95.80;;;;;;5023307;28;20072;-72
2022/12/13 07:17:50;;;;;;;60.13;23.85;;;-3270.80;95.70;;;;;;5026334;28;20399;-71
2022/12/13 07:20:16;;;;;;;53.15;22.42;;;-3270.80;95.70;;;;;;5025781;28;20041;-72
2022/12/13 07:22:41;;;;;;;48.13;20.55;;;-3270.70;95.60;;;;;;5025755;28;20052;-72
2022/12/13 07:25:07;;;;;;;43.03;17.92;;;-3270.70;95.60;;;;;;5021601;28;20418;-72
2022/12/13 07:27:33;;;;;;;42.97;17.90;;;-3270.60;95.60;;;;;;5024511;28;20127;-72
2022/12/13 07:29:59;;;;;;;40.85;18.60;;;-3270.60;95.70;;;;;;5029312;28;20104;-72
2022/12/13 07:32:25;;;;;;;53.38;18.05;;;-3270.60;95.60;;;;;;5020846;28;20089;-72
2022/12/13 07:34:50;;;;;;;38.17;17.15;;;-3270.50;95.60;;;;;;5020636;28;20025;-72
2022/12/13 07:37:16;;;;;;;42.70;19.35;;;-3270.50;95.60;;;;;;5025336;28;20140;-72
2022/12/13 07:39:41;;;;;;;52.30;19.10;;;-3270.50;95.70;;;;;;5023563;28;20022;-73
2022/12/13 07:42:07;;;;;;;47.10;19.60;;;-3270.50;95.80;;;;;;5024030;28;20064;-72
2022/12/13 07:44:32;;;;;;;46.80;17.48;;;-3270.60;95.80;;;;;;5020069;28;20034;-73
2022/12/13 07:46:58;;;;;;;44.95;18.40;;;-3270.60;95.70;;;;;;5026274;28;20107;-72
2022/12/13 07:49:23;;;;;;;42.75;17.80;;;-3270.60;95.70;;;;;;5028170;28;20157;-72
2022/12/13 07:51:49;;;;;;;42.05;17.25;;;-3270.70;95.80;;;;;;5024858;28;20021;-72
2022/12/13 07:54:14;;;;;;;46.25;18.02;;;-3270.60;95.70;;;;;;5025431;28;20075;-72
2022/12/13 07:56:40;;;;;;;40.45;18.05;;;-3270.60;95.70;;;;;;5020647;28;20093;-72
2022/12/13 07:59:05;;;;;;;39.47;16.88;;;-3270.60;95.70;;;;;;5025372;28;20037;-72
2022/12/13 08:01:34;;;;;;;42.45;17.00;;;-3270.60;95.80;;;;;;5024520;28;20470;-72
2022/12/13 08:04:03;;;;;;;40.70;17.92;;;-3270.70;95.80;;;;;;5023829;28;20033;-72
2022/12/13 08:06:32;;;;;;;40.95;16.77;;;-3270.70;95.80;;;;;;5027178;28;20308;-72
2022/12/13 08:08:58;;;;;;;43.05;16.33;;;-3270.70;95.80;;;;;;5028386;28;20128;-72
2022/12/13 08:11:24;;;;;;;49.53;16.65;;;-3270.80;95.80;;;;;;5019222;28;20455;-72
2022/12/13 08:13:49;;;;;;;45.33;18.67;;;-3270.80;95.70;;;;;;5027400;28;20102;-72
2022/12/13 08:16:17;;;;;;;45.88;18.88;;;-3270.80;95.70;;;;;;5015683;28;20032;-72
2022/12/13 08:18:43;;;;;;;45.20;17.63;;;-3270.80;95.70;;;;;;5029790;28;20158;-71
2022/12/13 08:21:09;;;;;;;42.22;17.83;;;-3270.90;95.70;;;;;;5020334;28;20140;-72
2022/12/13 08:23:36;;;;;;;50.45;19.27;;;-3271.00;95.70;;;;;;5025755;28;20042;-72
2022/12/13 08:26:03;;;;;;;40.92;18.63;;;-3271.00;95.60;;;;;;5023532;28;20384;-72
2022/12/13 08:28:30;;;;;;;37.50;18.17;;;-3271.00;95.60;;;;;;5019313;28;20120;-72
2022/12/13 08:31:05;;;;;;;40.67;17.50;;;-3271.10;95.60;;;;;;5023618;28;20033;-72
2022/12/13 08:33:33;;;;;;;42.88;18.85;;;-3271.10;95.60;;;;;;5024858;28;20120;-72
2022/12/13 08:36:10;;;;;;;44.00;17.50;;;-3271.20;95.60;;;;;;5025680;28;20407;-72
2022/12/13 08:38:36;;;;;;;44.55;18.63;;;-3271.30;95.60;;;;;;5020393;28;20029;-76
2022/12/13 08:41:03;;;;;;;41.20;18.08;;;-3271.30;95.50;;;;;;5023867;28;20087;-75
2022/12/13 08:43:28;;;;;;;46.38;18.13;;;-3271.40;95.50;;;;;;5028362;28;20033;-71
2022/12/13 08:45:54;;;;;;;45.95;19.42;;;-3271.50;95.50;;;;;;5025409;28;20025;-71
2022/12/13 08:48:19;;;;;;;47.33;20.02;;;-3271.70;95.50;;;;;;5024636;28;20642;-72
2022/12/13 08:50:45;;;;;;;47.03;19.55;;;-3271.80;95.50;;;;;;5021690;28;20037;-71
2022/12/13 08:53:10;;;;;;;47.78;19.63;;;-3271.90;95.60;;;;;;5018731;28;20088;-70
2022/12/13 08:55:36;;;;;;;48.10;20.65;;;-3272.00;95.50;;;;;;5017687;28;20026;-72
2022/12/13 08:58:08;;;;;;;44.00;19.80;;;-3272.00;95.40;;;;;;5023574;28;20037;-72
2022/12/13 09:00:35;;;;;;;53.92;20.48;;;-3272.00;95.30;;;;;;5023277;28;20217;-80
2022/12/13 09:03:02;;;;;;;46.42;21.23;;;-3272.00;95.20;;;;;;5024915;28;20033;-77
2022/12/13 09:05:28;;;;;;;47.40;20.73;;;-3272.10;95.30;;;;;;5023590;28;20017;-77
2022/12/13 09:07:55;;;;;;;43.38;19.58;;;-3272.20;95.30;;;;;;5026540;28;20026;-77
2022/12/13 09:10:20;;;;;;;44.90;20.55;;;-3272.20;95.30;;;;;;5021874;28;20057;-77
2022/12/13 09:12:46;;;;;;;47.97;20.63;;;-3272.30;95.30;;;;;;5020020;28;20517;-77
2022/12/13 09:15:12;;;;;;;46.30;19.85;;;-3272.40;95.20;;;;;;5015904;28;20022;-75
2022/12/13 09:17:37;;;;;;;48.03;20.55;;;-3272.40;95.20;;;;;;5028056;28;20036;-75
2022/12/13 09:20:05;;;;;;;43.20;19.45;;;-3272.60;95.30;;;;;;5025444;28;20064;-75
2022/12/13 09:22:31;;;;;;;45.92;20.25;;;-3272.70;95.40;;;;;;5015873;28;20061;-74
2022/12/13 09:24:56;;;;;;;40.75;19.38;;;-3272.80;95.30;;;;;;5023712;28;20338;-74
2022/12/13 09:27:23;;;;;;;46.10;21.08;;;-3272.90;95.30;;;;;;5023252;28;20146;-74
2022/12/13 09:29:49;;;;;;;44.58;21.13;;;-3272.90;95.20;;;;;;5021117;28;20021;-74
2022/12/13 09:32:14;;;;;;;49.42;19.25;;;-3273.00;95.10;;;;;;5024010;28;20025;-74
2022/12/13 09:34:40;;;;;;;44.20;20.13;;;-3273.00;94.80;;;;;;5024927;28;20029;-74
2022/12/13 09:37:05;;;;;;;52.30;21.70;;;-3273.10;94.60;;;;;;5027461;28;20041;-74
2022/12/13 09:39:31;;;;;;;46.92;21.95;;;-3273.20;94.30;;;;;;5023166;28;20132;-75
2022/12/13 09:41:57;;;;;;;47.90;19.35;;;-3273.30;94.30;;;;;;5025588;28;20038;-75
2022/12/13 09:44:35;;;;;;;49.10;21.75;;;-3273.50;94.40;;;;;;5025161;28;20043;-74
2022/12/13 09:47:04;;;;;;;45.10;19.85;;;-3273.60;93.70;;;;;;5026166;28;20107;-74
2022/12/13 09:49:37;;;;;;;55.83;23.92;;;-3273.80;93.50;;;;;;5024707;28;20021;-74
2022/12/13 09:52:05;;;;;;;56.47;22.48;;;-3273.90;93.10;;;;;;5026878;28;20388;-74
2022/12/13 09:54:32;;;;;;;52.75;21.73;;;-3274.00;92.60;;;;;;5026499;28;20090;-74
2022/12/13 09:56:58;;;;;;;52.50;22.77;;;-3274.10;92.80;;;;;;5017591;28;20052;-74
2022/12/13 09:59:27;;;;;;;52.20;22.52;;;-3274.20;92.10;;;;;;5024759;28;20061;-74
2022/12/13 10:01:54;;;;;;;49.05;23.17;;;-3274.10;91.40;;;;;;5024027;28;20029;-74
2022/12/13 10:04:20;;;;;;;49.90;23.05;;;-3274.10;91.70;;;;;;5024545;28;20057;-73
2022/12/13 10:06:45;;;;;;;55.30;24.23;;;-3274.00;91.40;;;;;;5022799;28;20037;-72
2022/12/13 10:09:13;;;;;;;56.95;22.52;;;-3274.10;91.60;;;;;;5026364;28;20083;-73
2022/12/13 10:11:47;;;;;;;55.75;22.40;;;-3274.10;91.80;;;;;;5020646;28;20033;-72
2022/12/13 10:14:33;;;;;;;51.80;22.95;;;-3274.10;91.90;;;;;;5031038;28;20025;-73
2022/12/13 10:17:04;;;;;;;48.08;21.60;;;-3274.20;91.90;;;;;;5030961;28;20134;-73
2022/12/13 10:19:40;;;;;;;50.35;22.80;;;-3274.20;91.90;;;;;;5025442;28;20041;-73
2022/12/13 10:22:11;;;;;;;48.92;22.88;;;-3274.10;91.60;;;;;;5014430;28;20181;-72
2022/12/13 10:24:55;;;;;;;45.40;21.88;;;-3274.10;91.90;;;;;;5018902;28;20173;-73
2022/12/13 10:27:40;;;;;;;47.20;21.20;;;-3274.30;92.20;;;;;;5026984;28;20400;-73
2022/12/13 10:30:14;;;;;;;48.70;22.33;;;-3274.20;91.80;;;;;;5022671;28;20048;-73
2022/12/13 10:32:53;;;;;;;44.63;22.17;;;-3274.20;91.70;;;;;;5018983;28;20045;-72
2022/12/13 10:35:33;;;;;;;51.03;22.45;;;-3274.20;91.90;;;;;;5018473;28;20092;-73
2022/12/13 10:38:01;;;;;;;49.63;22.27;;;-3274.20;91.80;;;;;;5018441;28;20129;-72
2022/12/13 10:40:44;;;;;;;50.78;23.27;;;-3274.30;91.90;;;;;;5025262;28;20021;-73
2022/12/13 10:43:14;;;;;;;48.20;22.17;;;-3274.30;91.90;;;;;;5018744;28;20083;-71
2022/12/13 10:45:58;;;;;;;49.47;23.88;;;-3274.40;91.90;;;;;;5015719;28;20092;-73
2022/12/13 10:48:47;;;;;;;53.30;23.67;;;-3274.40;91.50;;;;;;5022193;28;20056;-73
2022/12/13 10:51:16;;;;;;;50.85;22.63;;;-3274.50;91.60;;;;;;5022204;28;20100;-74
2022/12/13 10:53:52;;;;;;;51.08;22.65;;;-3274.60;91.70;;;;;;5035468;28;20025;-74
2022/12/13 10:56:19;;;;;;;55.28;23.45;;;-3274.60;91.70;;;;;;5025390;28;20148;-74
2022/12/13 10:58:46;;;;;;;51.08;22.63;;;-3274.70;92.00;;;;;;5015416;28;20036;-74
2022/12/13 11:01:17;;;;;;;54.13;22.75;;;-3274.90;92.10;;;;;;5017958;28;20285;-74
2022/12/13 11:04:02;;;;;;;58.08;25.23;;;-3275.00;92.10;;;;;;5022610;28;20025;-74
2022/12/13 11:06:45;;;;;;;55.88;25.25;;;-3275.00;91.50;;;;;;5015606;28;20351;-74
2022/12/13 11:09:30;;;;;;;63.95;24.85;;;-3275.10;91.70;;;;;;5015118;28;20421;-74
2022/12/13 11:12:01;;;;;;;52.22;24.85;;;-3275.40;91.90;;;;;;5019625;28;20331;-74
2022/12/13 11:14:31;;;;;;;;;;;-3275.40;90.90;;;;;;5011508;28;20053;-74
2022/12/13 11:17:04;;;;;;;48.83;21.93;;;-3275.30;90.70;;;;;;5033200;28;19952;-74
2022/12/13 11:19:44;;;;;;;47.35;22.83;;;-3275.30;90.60;;;;;;5023485;28;20435;-75
2022/12/13 11:22:38;;;;;;;47.60;22.80;;;-3275.40;91.00;;;;;;5029588;28;20049;-74
2022/12/13 11:25:08;;;;;;;44.53;21.70;;;-3275.20;90.70;;;;;;5022378;28;20117;-74
2022/12/13 11:28:15;;;;;;;38.58;20.70;;;-3275.20;91.10;;;;;;5024851;28;20032;-74
2022/12/13 11:31:30;;;;;;;43.67;21.60;;;-3275.30;91.40;;;;;;5023743;28;20140;-74
2022/12/13 11:34:11;;;;;;;38.40;18.83;;;-3275.30;91.40;;;;;;5010796;28;20056;-74
2022/12/13 11:37:02;;;;;;;35.30;18.25;;;-3275.20;91.20;;;;;;5027133;28;20025;-75
2022/12/13 11:39:33;;;;;;;33.17;18.23;;;-3275.40;92.00;;;;;;5023820;28;20411;-74
2022/12/13 11:42:25;;;;;;;41.22;19.27;;;-3275.40;92.00;;;;;;5027680;28;20116;-74
2022/12/13 11:44:58;;;;;;;33.67;16.95;;;-3275.30;91.80;;;;;;5026524;28;20052;-74
2022/12/13 11:47:30;;;;;;;38.83;18.98;;;-3275.40;91.90;;;;;;5028736;28;20013;-74
2022/12/13 11:49:57;;;;;;;36.63;19.55;;;-3275.40;92.10;;;;;;5024660;28;20025;-74
2022/12/13 11:52:41;;;;;;;36.28;18.77;;;-3275.40;92.20;;;;;;5015666;28;20205;-74
2022/12/13 11:55:24;;;;;;;38.08;18.48;;;-3275.40;92.10;;;;;;5036284;28;20065;-74
2022/12/13 11:58:05;;;;;;;39.03;19.05;;;-3275.30;92.00;;;;;;5016848;28;20056;-74
2022/12/13 12:00:38;;;;;;;38.67;19.08;;;-3275.30;92.10;;;;;;5018145;28;20152;-74
2022/12/13 12:03:34;;;;;;;38.85;19.98;;;-3275.30;92.30;;;;;;5029506;28;20195;-74
2022/12/13 12:06:16;;;;;;;44.35;19.77;;;-3275.20;92.40;;;;;;5024044;28;20045;-75
2022/12/13 12:09:06;;;;;;;41.28;19.42;;;-3275.20;92.70;;;;;;5027449;28;20439;-75
2022/12/13 12:11:59;;;;;;;41.42;19.33;;;-3275.20;92.60;;;;;;5021867;28;20064;-74
2022/12/13 12:14:54;;;;;;;37.35;19.67;;;-3275.30;93.00;;;;;;5017346;28;20425;-75
2022/12/13 12:17:23;;;;;;;39.30;19.38;;;-3275.10;92.80;;;;;;5024234;28;20030;-75